createdAt,value
2022-08-16T00:00:27.608Z,21.10
2022-08-16T00:02:54.678Z,21.00
2022-08-16T00:05:22.527Z,21.00
2022-08-16T00:07:55.229Z,21.10
2022-08-16T00:10:24.215Z,21.10
2022-08-16T00:12:51.904Z,21.10
2022-08-16T00:15:51.652Z,21.00
2022-08-16T00:18:15.945Z,21.00
2022-08-16T00:20:44.834Z,21.00
2022-08-16T00:23:12.055Z,21.00
2022-08-16T00:26:35.877Z,20.90
2022-08-16T00:28:29.805Z,20.90
2022-08-16T00:30:59.150Z,20.90
2022-08-16T00:33:28.071Z,20.90
2022-08-16T00:35:57.718Z,20.80
2022-08-16T00:38:41.069Z,20.80
2022-08-16T00:41:11.378Z,20.70
2022-08-16T00:43:42.442Z,20.60
2022-08-16T00:46:33.263Z,20.60
2022-08-16T00:48:57.587Z,20.50
2022-08-16T00:51:25.203Z,20.50
2022-08-16T00:53:59.358Z,20.50
2022-08-16T00:56:56.785Z,20.40
2022-08-16T00:59:20.257Z,20.40
2022-08-16T01:01:50.701Z,20.40
2022-08-16T01:04:29.393Z,20.30
2022-08-16T01:07:02.264Z,20.30
2022-08-16T01:09:33.483Z,20.30
2022-08-16T01:12:02.448Z,20.40
2022-08-16T01:14:35.549Z,20.30
2022-08-16T01:17:02.575Z,20.30
2022-08-16T01:19:41.104Z,20.30
2022-08-16T01:22:47.747Z,20.20
2022-08-16T01:25:12.061Z,20.20
2022-08-16T01:27:55.311Z,20.10
2022-08-16T01:30:30.562Z,20.20
2022-08-16T01:33:02.348Z,20.10
2022-08-16T01:35:56.719Z,20.10
2022-08-16T01:38:25.853Z,20.10
2022-08-16T01:41:01.842Z,20.10
2022-08-16T01:43:29.330Z,20.10
2022-08-16T01:45:59.630Z,20.10
2022-08-16T01:48:46.461Z,20.10
2022-08-16T01:51:16.819Z,20.10
2022-08-16T01:53:44.186Z,20.10
2022-08-16T01:56:24.494Z,20.00
2022-08-16T01:58:54.844Z,20.00
2022-08-16T02:01:22.284Z,20.20
2022-08-16T02:03:50.623Z,20.20
2022-08-16T02:06:34.748Z,20.20
2022-08-16T02:09:05.606Z,20.10
2022-08-16T02:11:47.673Z,20.20
2022-08-16T02:14:18.516Z,20.20
2022-08-16T02:16:48.877Z,20.20
2022-08-16T02:19:18.430Z,20.20
2022-08-16T02:22:08.942Z,20.20
2022-08-16T02:24:41.986Z,20.10
2022-08-16T02:27:09.996Z,20.10
2022-08-16T02:29:37.571Z,20.10
2022-08-16T02:33:02.511Z,20.10
2022-08-16T02:34:56.370Z,20.00
2022-08-16T02:37:23.554Z,20.00
2022-08-16T02:39:53.924Z,20.00
2022-08-16T02:42:21.414Z,19.90
2022-08-16T02:44:48.856Z,19.90
2022-08-16T02:47:25.347Z,19.90
2022-08-16T02:50:34.348Z,19.90
2022-08-16T02:52:39.566Z,19.90
2022-08-16T02:55:10.726Z,19.90
2022-08-16T02:57:42.305Z,19.90
2022-08-16T03:00:34.261Z,19.80
2022-08-16T03:03:03.525Z,19.90
2022-08-16T03:05:31.707Z,19.90
2022-08-16T03:08:00.262Z,19.90
2022-08-16T03:10:33.390Z,19.80
2022-08-16T03:13:01.439Z,19.80
2022-08-16T03:15:30.393Z,19.70
2022-08-16T03:17:57.612Z,19.70
2022-08-16T03:20:31.824Z,19.60
2022-08-16T03:22:59.848Z,19.70
2022-08-16T03:25:40.913Z,19.70
2022-08-16T03:28:11.359Z,19.60
2022-08-16T03:30:39.269Z,19.70
2022-08-16T03:33:07.616Z,19.70
2022-08-16T03:35:36.370Z,19.70
2022-08-16T03:38:32.471Z,19.60
2022-08-16T03:40:56.373Z,19.60
2022-08-16T03:43:24.295Z,19.60
2022-08-16T03:46:11.118Z,19.60
2022-08-16T03:48:40.370Z,19.70
2022-08-16T03:51:12.155Z,19.70
2022-08-16T03:53:39.716Z,19.60
2022-08-16T03:56:08.011Z,19.60
2022-08-16T03:58:48.448Z,19.60
2022-08-16T04:01:18.555Z,19.70
2022-08-16T04:03:45.428Z,19.70
2022-08-16T04:06:13.000Z,19.70
2022-08-16T04:08:42.697Z,19.70
2022-08-16T04:11:12.006Z,19.70
2022-08-16T04:14:00.563Z,19.80
2022-08-16T04:16:32.305Z,19.80
2022-08-16T04:19:02.496Z,19.80
2022-08-16T04:21:32.575Z,19.80
2022-08-16T04:24:00.110Z,19.80
2022-08-16T04:26:31.166Z,19.80
2022-08-16T04:29:16.621Z,19.80
2022-08-16T04:31:56.576Z,19.80
2022-08-16T04:34:29.443Z,19.80
2022-08-16T04:36:58.084Z,19.80
2022-08-16T04:39:45.796Z,19.70
2022-08-16T04:42:13.078Z,19.70
2022-08-16T04:44:53.691Z,19.70
2022-08-16T04:47:32.860Z,19.70
2022-08-16T04:50:01.444Z,19.70
2022-08-16T04:52:34.802Z,19.70
2022-08-16T04:55:08.446Z,19.70
2022-08-16T04:57:36.912Z,19.80
2022-08-16T05:00:30.522Z,19.80
2022-08-16T05:02:58.812Z,19.80
2022-08-16T05:05:30.625Z,19.80
2022-08-16T05:08:01.439Z,19.90
2022-08-16T05:10:48.298Z,19.90
2022-08-16T05:13:17.519Z,19.90
2022-08-16T05:15:44.412Z,19.90
2022-08-16T05:18:16.129Z,19.90
2022-08-16T05:20:45.670Z,20.00
2022-08-16T05:23:31.777Z,19.90
2022-08-16T05:25:59.763Z,19.80
2022-08-16T05:28:31.019Z,19.80
2022-08-16T05:31:04.930Z,19.80
2022-08-16T05:33:33.693Z,19.80
2022-08-16T05:36:03.892Z,19.80
2022-08-16T05:38:38.825Z,19.90
2022-08-16T05:41:06.659Z,19.90
2022-08-16T05:43:43.622Z,20.00
2022-08-16T05:46:28.905Z,20.00
2022-08-16T05:49:08.974Z,20.10
2022-08-16T05:51:38.902Z,20.10
2022-08-16T05:54:07.770Z,20.10
2022-08-16T05:56:37.363Z,20.30
2022-08-16T05:59:06.439Z,20.40
2022-08-16T06:01:38.000Z,20.40
2022-08-16T06:04:13.604Z,20.40
2022-08-16T06:06:55.835Z,20.50
2022-08-16T06:09:23.756Z,20.50
2022-08-16T06:11:51.050Z,20.60
2022-08-16T06:14:17.937Z,20.60
2022-08-16T06:16:45.065Z,20.70
2022-08-16T06:19:18.234Z,20.80
2022-08-16T06:21:45.949Z,20.80
2022-08-16T06:24:55.066Z,20.90
2022-08-16T06:27:09.209Z,20.90
2022-08-16T06:29:36.313Z,20.90
2022-08-16T06:32:04.600Z,20.90
2022-08-16T06:34:57.113Z,20.80
2022-08-16T06:37:18.671Z,20.80
2022-08-16T06:39:49.941Z,20.90
2022-08-16T06:42:18.090Z,20.90
2022-08-16T06:44:45.410Z,21.00
2022-08-16T06:47:13.443Z,21.00
2022-08-16T06:49:53.797Z,21.10
2022-08-16T06:52:57.981Z,21.10
2022-08-16T06:55:13.000Z,21.10
2022-08-16T06:57:40.875Z,21.30
2022-08-16T07:00:24.279Z,21.40
2022-08-16T07:02:53.843Z,21.40
2022-08-16T07:05:21.103Z,21.60
2022-08-16T07:07:54.323Z,21.60
2022-08-16T07:10:25.821Z,21.70
2022-08-16T07:13:03.429Z,21.80
2022-08-16T07:15:35.265Z,21.70
2022-08-16T07:18:02.259Z,21.80
2022-08-16T07:20:36.095Z,21.90
2022-08-16T07:23:15.177Z,22.00
2022-08-16T07:25:42.363Z,22.00
2022-08-16T07:28:12.021Z,22.10
2022-08-16T07:30:47.417Z,22.00
2022-08-16T07:33:20.294Z,22.00
2022-08-16T07:36:07.987Z,22.00
2022-08-16T07:38:36.842Z,22.00
2022-08-16T07:41:09.952Z,22.00
2022-08-16T07:43:40.557Z,22.10
2022-08-16T07:46:38.993Z,22.00
2022-08-16T07:49:02.377Z,21.90
2022-08-16T07:51:35.594Z,21.90
2022-08-16T07:54:09.406Z,21.80
2022-08-16T07:56:37.598Z,21.80
2022-08-16T07:59:05.446Z,21.90
2022-08-16T08:01:32.285Z,21.90
2022-08-16T08:03:59.445Z,22.00
2022-08-16T08:06:28.715Z,22.00
2022-08-16T08:08:57.063Z,21.90
2022-08-16T08:11:28.124Z,22.00
2022-08-16T08:13:55.691Z,22.00
2022-08-16T08:16:30.489Z,22.00
2022-08-16T08:19:01.033Z,22.10
2022-08-16T08:21:58.155Z,22.20
2022-08-16T08:24:16.916Z,22.30
2022-08-16T08:26:43.878Z,22.50
2022-08-16T08:29:11.936Z,22.70
2022-08-16T08:31:42.177Z,22.70
2022-08-16T08:34:09.127Z,22.80
2022-08-16T08:36:40.662Z,22.90
2022-08-16T08:39:12.905Z,23.00
2022-08-16T08:41:42.252Z,23.00
2022-08-16T08:44:29.272Z,23.00
2022-08-16T08:47:04.760Z,23.00
2022-08-16T08:49:46.529Z,23.10
2022-08-16T08:52:34.996Z,23.10
2022-08-16T08:55:09.258Z,23.10
2022-08-16T08:57:42.296Z,23.00
2022-08-16T09:00:13.163Z,23.10
2022-08-16T09:02:43.074Z,23.20
2022-08-16T09:05:15.711Z,23.20
2022-08-16T09:08:00.728Z,23.20
2022-08-16T09:10:30.136Z,23.20
2022-08-16T09:12:58.442Z,23.50
2022-08-16T09:15:32.831Z,23.80
2022-08-16T09:18:02.102Z,24.00
2022-08-16T09:20:59.860Z,24.10
2022-08-16T09:23:36.630Z,24.20
2022-08-16T09:26:44.882Z,24.30
2022-08-16T09:29:15.345Z,24.50
2022-08-16T09:31:41.386Z,24.90
2022-08-16T09:34:09.338Z,25.00
2022-08-16T09:36:46.259Z,24.90
2022-08-16T09:39:15.739Z,24.90
2022-08-16T09:41:44.152Z,24.90
2022-08-16T09:45:11.027Z,24.90
2022-08-16T09:47:10.318Z,25.10
2022-08-16T09:49:40.807Z,25.20
2022-08-16T09:52:09.504Z,25.40
2022-08-16T09:54:36.882Z,25.70
2022-08-16T09:57:03.979Z,25.70
2022-08-16T09:59:31.442Z,25.80
2022-08-16T10:02:25.983Z,25.80
2022-08-16T10:04:54.945Z,25.90
2022-08-16T10:07:22.467Z,26.00
2022-08-16T10:09:54.548Z,25.90
2022-08-16T10:12:43.228Z,25.90
2022-08-16T10:15:15.884Z,25.70
2022-08-16T10:17:45.823Z,25.70
2022-08-16T10:20:29.206Z,25.70
2022-08-16T10:23:03.564Z,25.60
2022-08-16T10:27:18.016Z,25.50
2022-08-16T10:28:30.338Z,25.40
2022-08-16T10:31:00.610Z,25.30
2022-08-16T10:33:33.555Z,25.30
2022-08-16T10:36:04.017Z,25.40
2022-08-16T10:38:33.048Z,25.50
2022-08-16T10:41:03.987Z,25.50
2022-08-16T10:43:31.445Z,25.60
2022-08-16T10:46:00.754Z,25.70
2022-08-16T10:48:28.758Z,25.80
2022-08-16T10:50:58.712Z,25.90
2022-08-16T10:53:32.674Z,26.00
2022-08-16T10:56:06.410Z,26.20
2022-08-16T10:58:52.619Z,26.60
2022-08-16T11:01:40.036Z,26.90
2022-08-16T11:05:04.731Z,27.00
2022-08-16T11:07:43.321Z,27.20
2022-08-16T11:09:42.977Z,27.40
2022-08-16T11:12:14.445Z,27.50
2022-08-16T11:15:11.249Z,27.80
2022-08-16T11:17:28.806Z,27.90
2022-08-16T11:20:36.724Z,27.90
2022-08-16T11:22:49.697Z,27.90
2022-08-16T11:29:12.351Z,28.00
2022-08-16T11:31:02.502Z,28.10
2022-08-16T11:36:27.312Z,28.10
2022-08-16T11:38:57.695Z,28.10
2022-08-16T11:41:29.419Z,28.10
2022-08-16T11:43:59.184Z,27.90
2022-08-16T11:46:45.724Z,27.50
2022-08-16T11:49:14.058Z,27.20
2022-08-16T11:51:44.478Z,27.00
2022-08-16T11:54:20.755Z,27.00
2022-08-16T11:56:57.641Z,26.80
2022-08-16T11:59:28.835Z,26.80
2022-08-16T12:02:00.228Z,26.50
2022-08-16T12:04:45.903Z,26.20
2022-08-16T12:07:18.975Z,26.10
2022-08-16T12:09:48.507Z,25.90
2022-08-16T12:12:15.511Z,26.00
2022-08-16T12:14:45.794Z,26.10
2022-08-16T12:17:14.347Z,25.90
2022-08-16T12:19:41.448Z,25.80
2022-08-16T12:22:19.728Z,25.70
2022-08-16T12:24:52.363Z,25.80
2022-08-16T12:27:24.240Z,26.10
2022-08-16T12:29:54.458Z,26.20
2022-08-16T12:32:37.421Z,26.10
2022-08-16T12:35:08.567Z,26.00
2022-08-16T12:37:35.527Z,25.90
2022-08-16T12:40:02.557Z,26.00
2022-08-16T12:42:35.334Z,26.20
2022-08-16T12:45:07.309Z,26.60
2022-08-16T12:48:10.040Z,26.70
2022-08-16T12:50:40.502Z,26.50
2022-08-16T12:53:07.925Z,26.20
2022-08-16T12:55:41.769Z,25.90
2022-08-16T12:58:14.012Z,25.90
2022-08-16T13:00:56.612Z,25.80
2022-08-16T13:03:23.479Z,25.80
2022-08-16T13:05:53.466Z,25.70
2022-08-16T13:08:22.731Z,25.50
2022-08-16T13:10:55.180Z,25.30
2022-08-16T13:13:26.989Z,25.20
2022-08-16T13:16:03.443Z,25.20
2022-08-16T13:18:34.501Z,25.10
2022-08-16T13:21:06.700Z,25.00
2022-08-16T13:23:35.820Z,25.00
2022-08-16T13:26:03.401Z,25.00
2022-08-16T13:28:30.254Z,25.00
2022-08-16T13:30:57.286Z,25.10
2022-08-16T13:33:30.633Z,25.20
2022-08-16T13:35:59.209Z,25.40
2022-08-16T13:38:30.013Z,25.40
2022-08-16T13:40:59.911Z,25.50
2022-08-16T13:43:28.858Z,25.60
2022-08-16T13:46:02.969Z,25.60
2022-08-16T13:48:42.551Z,25.60
2022-08-16T13:51:16.860Z,25.60
2022-08-16T13:53:49.717Z,25.70
2022-08-16T13:56:25.316Z,25.70
2022-08-16T13:58:54.809Z,25.60
2022-08-16T14:01:22.893Z,25.40
2022-08-16T14:03:50.482Z,25.40
2022-08-16T14:06:21.599Z,25.40
2022-08-16T14:08:50.321Z,25.40
2022-08-16T14:11:25.880Z,25.30
2022-08-16T14:13:52.952Z,25.30
2022-08-16T14:16:23.901Z,25.30
2022-08-16T14:18:57.227Z,25.30
2022-08-16T14:21:24.135Z,25.30
2022-08-16T14:23:52.270Z,25.30
2022-08-16T14:26:21.277Z,25.30
2022-08-16T14:28:50.462Z,25.30
2022-08-16T14:31:17.726Z,25.30
2022-08-16T14:33:44.881Z,25.40
2022-08-16T14:36:11.915Z,25.30
2022-08-16T14:38:45.773Z,25.30
2022-08-16T14:41:13.960Z,25.20
2022-08-16T14:43:40.785Z,25.10
2022-08-16T14:46:07.816Z,25.00
2022-08-16T14:48:34.834Z,24.70
2022-08-16T14:51:01.895Z,24.50
2022-08-16T14:53:28.963Z,24.40
2022-08-16T14:55:59.639Z,24.40
2022-08-16T14:58:35.091Z,24.40
2022-08-16T15:01:06.332Z,24.20
2022-08-16T15:03:44.448Z,24.20
2022-08-16T15:06:13.158Z,24.20
2022-08-16T15:08:41.400Z,24.20
2022-08-16T15:11:08.221Z,24.20
2022-08-16T15:13:35.393Z,24.10
2022-08-16T15:16:03.707Z,24.10
2022-08-16T15:18:32.363Z,24.00
2022-08-16T15:21:03.763Z,24.00
2022-08-16T15:23:33.716Z,23.90
2022-08-16T15:26:03.567Z,23.90
2022-08-16T15:28:32.613Z,23.90
2022-08-16T15:31:03.204Z,23.70
2022-08-16T15:33:32.348Z,23.50
2022-08-16T15:35:59.476Z,23.40
2022-08-16T15:38:57.874Z,23.30
2022-08-16T15:41:38.400Z,23.20
2022-08-16T15:44:10.838Z,23.10
2022-08-16T15:46:55.627Z,23.00
2022-08-16T15:49:37.177Z,23.00
2022-08-16T15:52:15.825Z,23.00
2022-08-16T15:54:52.639Z,22.90
2022-08-16T15:57:24.315Z,22.80
2022-08-16T15:59:52.498Z,22.70
2022-08-16T16:02:29.214Z,22.70
2022-08-16T16:05:02.506Z,22.60
2022-08-16T16:07:33.240Z,22.50
2022-08-16T16:10:01.454Z,22.30
2022-08-16T16:15:18.923Z,22.10
2022-08-16T16:17:50.648Z,22.00
2022-08-16T16:20:19.354Z,21.90
2022-08-16T16:22:46.646Z,21.90
2022-08-16T16:25:15.958Z,21.90
2022-08-16T16:27:43.771Z,22.00
2022-08-16T16:30:38.276Z,22.00
2022-08-16T16:32:59.770Z,22.00
2022-08-16T16:35:32.599Z,22.20
2022-08-16T16:37:59.846Z,22.30
2022-08-16T16:40:32.921Z,22.50
2022-08-16T16:43:00.435Z,22.60
2022-08-16T16:45:33.534Z,23.00
2022-08-16T16:48:05.817Z,23.30
2022-08-16T16:50:44.546Z,23.40
2022-08-16T16:53:17.177Z,23.50
2022-08-16T16:55:52.036Z,23.50
2022-08-16T16:58:43.500Z,23.70
2022-08-16T17:01:10.626Z,23.80
2022-08-16T17:03:38.500Z,24.10
2022-08-16T17:06:09.279Z,24.50
2022-08-16T17:08:40.784Z,24.70
2022-08-16T17:11:13.999Z,25.10
2022-08-16T17:13:41.912Z,25.50
2022-08-16T17:16:09.023Z,25.90
2022-08-16T17:19:16.358Z,26.00
2022-08-16T17:21:36.895Z,25.90
2022-08-16T17:24:17.408Z,25.80
2022-08-16T17:26:48.892Z,25.90
2022-08-16T17:29:16.225Z,25.80
2022-08-16T17:31:43.793Z,25.50
2022-08-16T17:34:29.299Z,25.30
2022-08-16T17:37:04.893Z,24.90
2022-08-16T17:39:33.579Z,24.60
2022-08-16T17:42:08.071Z,24.40
2022-08-16T17:44:35.047Z,24.20
2022-08-16T17:47:01.867Z,24.20
2022-08-16T17:49:28.767Z,24.10
2022-08-16T17:51:55.589Z,24.00
2022-08-16T17:54:30.356Z,23.90
2022-08-16T17:57:01.126Z,23.90
2022-08-16T17:59:28.975Z,23.90
2022-08-16T18:01:56.358Z,23.90
2022-08-16T18:04:49.854Z,23.90
2022-08-16T18:07:10.787Z,23.80
2022-08-16T18:09:39.573Z,23.60
2022-08-16T18:12:44.364Z,23.50
2022-08-16T18:15:03.223Z,23.40
2022-08-16T18:17:30.083Z,23.40
2022-08-16T18:19:56.892Z,23.30
2022-08-16T18:22:30.523Z,23.10
2022-08-16T18:24:57.881Z,23.00
2022-08-16T18:27:27.268Z,22.90
2022-08-16T18:29:54.743Z,22.90
2022-08-16T18:32:21.902Z,22.90
2022-08-16T18:34:54.148Z,22.90
2022-08-16T18:37:23.167Z,22.80
2022-08-16T18:39:50.259Z,22.80
2022-08-16T18:42:17.276Z,22.80
2022-08-16T18:44:44.210Z,22.80
2022-08-16T18:47:11.078Z,22.80
2022-08-16T18:49:38.022Z,22.80
2022-08-16T18:52:05.034Z,22.80
2022-08-16T18:54:32.459Z,22.70
2022-08-16T18:56:59.478Z,22.70
2022-08-16T18:59:27.783Z,22.60
2022-08-16T19:01:59.674Z,22.50
2022-08-16T19:04:56.589Z,22.50
2022-08-16T19:07:14.909Z,22.50
2022-08-16T19:09:41.779Z,22.40
2022-08-16T19:12:08.969Z,22.40
2022-08-16T19:14:35.815Z,22.30
2022-08-16T19:17:02.689Z,22.30
2022-08-16T19:19:29.599Z,22.20
2022-08-16T19:21:56.894Z,22.20
2022-08-16T19:24:29.189Z,22.10
2022-08-16T19:26:56.350Z,22.10
2022-08-16T19:29:25.146Z,22.00
2022-08-16T19:31:52.039Z,22.00
2022-08-16T19:34:19.027Z,22.00
2022-08-16T19:36:45.952Z,21.90
2022-08-16T19:39:14.082Z,21.90
2022-08-16T19:41:46.117Z,21.80
2022-08-16T19:44:19.933Z,21.80
2022-08-16T19:46:48.664Z,21.70
2022-08-16T19:49:16.221Z,21.70
2022-08-16T19:51:44.145Z,21.70
2022-08-16T19:54:11.048Z,21.60
2022-08-16T19:56:37.974Z,21.60
2022-08-16T19:59:21.830Z,21.60
2022-08-16T20:01:52.387Z,21.50
2022-08-16T20:04:20.756Z,21.50
2022-08-16T20:06:47.595Z,21.50
2022-08-16T20:09:15.763Z,21.50
2022-08-16T20:11:46.206Z,21.40
2022-08-16T20:14:20.141Z,21.40
2022-08-16T20:16:57.151Z,21.50
2022-08-16T20:19:25.190Z,21.40
2022-08-16T20:21:57.645Z,21.40
2022-08-16T20:24:40.426Z,21.40
2022-08-16T20:27:10.674Z,21.30
2022-08-16T20:29:41.640Z,21.30
2022-08-16T20:32:13.888Z,21.30
2022-08-16T20:34:44.274Z,21.30
2022-08-16T20:37:16.260Z,21.30
2022-08-16T20:39:47.145Z,21.30
2022-08-16T20:42:15.133Z,21.30
2022-08-16T20:44:42.047Z,21.30
2022-08-16T20:47:09.135Z,21.30
2022-08-16T20:49:36.237Z,21.30
2022-08-16T20:52:08.566Z,21.20
2022-08-16T20:54:35.598Z,21.20
2022-08-16T20:57:02.659Z,21.30
2022-08-16T20:59:29.501Z,21.30
2022-08-16T21:01:57.123Z,21.30
2022-08-16T21:04:25.568Z,21.30
2022-08-16T21:06:53.611Z,21.30
2022-08-16T21:09:23.589Z,21.30
2022-08-16T21:11:51.632Z,21.40
2022-08-16T21:14:18.473Z,21.40
2022-08-16T21:16:45.857Z,21.30
2022-08-16T21:19:13.068Z,21.40
2022-08-16T21:21:39.916Z,21.40
2022-08-16T21:24:06.820Z,21.40
2022-08-16T21:26:39.075Z,21.40
2022-08-16T21:29:06.643Z,21.40
2022-08-16T21:31:38.334Z,21.40
2022-08-16T21:34:05.206Z,21.40
2022-08-16T21:36:34.917Z,21.40
2022-08-16T21:39:05.677Z,21.40
2022-08-16T21:41:32.962Z,21.40
2022-08-16T21:43:59.837Z,21.30
2022-08-16T21:46:26.661Z,21.30
2022-08-16T21:48:53.492Z,21.30
2022-08-16T21:51:20.812Z,21.30
2022-08-16T21:53:47.722Z,21.40
2022-08-16T21:56:16.582Z,21.40
2022-08-16T21:58:45.542Z,21.40
2022-08-16T22:01:12.402Z,21.50
2022-08-16T22:03:39.284Z,21.50
2022-08-16T22:06:12.708Z,21.50
2022-08-16T22:08:51.065Z,21.40
2022-08-16T22:11:22.529Z,21.50
2022-08-16T22:13:57.570Z,21.50
2022-08-16T22:16:26.146Z,21.50
2022-08-16T22:18:53.015Z,21.60
2022-08-16T22:21:20.094Z,21.60
2022-08-16T22:23:57.430Z,21.40
2022-08-16T22:26:30.652Z,21.20
2022-08-16T22:29:05.459Z,21.00
2022-08-16T22:31:33.005Z,20.90
2022-08-16T22:34:01.815Z,20.80
2022-08-16T22:36:29.555Z,20.80
2022-08-16T22:39:01.933Z,20.90
2022-08-16T22:41:29.133Z,20.80
2022-08-16T22:43:56.356Z,20.70
2022-08-16T22:46:23.350Z,20.60
2022-08-16T22:48:50.871Z,20.50
2022-08-16T22:51:19.153Z,20.40
2022-08-16T22:53:46.159Z,20.40
2022-08-16T22:56:13.011Z,20.30
2022-08-16T22:58:39.983Z,20.40
2022-08-16T23:01:08.135Z,20.40
2022-08-16T23:03:35.435Z,20.40
2022-08-16T23:06:02.378Z,20.40
2022-08-16T23:08:38.505Z,20.40
2022-08-16T23:11:07.375Z,20.40
2022-08-16T23:13:34.269Z,20.50
2022-08-16T23:16:03.382Z,20.50
2022-08-16T23:18:38.905Z,20.50
2022-08-16T23:21:07.721Z,20.50
2022-08-16T23:23:34.691Z,20.50
2022-08-16T23:26:01.545Z,20.60
2022-08-16T23:28:30.796Z,20.60
2022-08-16T23:30:58.027Z,20.60
2022-08-16T23:33:26.171Z,20.60
2022-08-16T23:35:55.259Z,20.70
2022-08-16T23:38:37.855Z,20.70
2022-08-16T23:41:09.109Z,20.70
2022-08-16T23:43:44.371Z,20.70
2022-08-16T23:46:15.043Z,20.70
2022-08-16T23:50:01.795Z,20.70
2022-08-16T23:51:29.050Z,20.70
2022-08-16T23:53:56.027Z,20.70
2022-08-16T23:56:22.937Z,20.80
2022-08-16T23:58:52.595Z,20.80
